sensor_id;sensor_type;location;lat;lon;timestamp;P1;durP1;ratioP1;P2;durP2;ratioP2
76850;SDS011;65824;43.726;20.692;2023-05-07T00:00:09;6.80;;;4.18;;
76850;SDS011;65824;43.726;20.692;2023-05-07T00:02:37;8.40;;;4.40;;
76850;SDS011;65824;43.726;20.692;2023-05-07T00:05:03;6.25;;;4.22;;
76850;SDS011;65824;43.726;20.692;2023-05-07T00:07:28;7.78;;;4.75;;
76850;SDS011;65824;43.726;20.692;2023-05-07T00:09:54;9.00;;;4.95;;
76850;SDS011;65824;43.726;20.692;2023-05-07T00:12:20;9.75;;;5.10;;
76850;SDS011;65824;43.726;20.692;2023-05-07T00:14:45;14.82;;;7.25;;
76850;SDS011;65824;43.726;20.692;2023-05-07T00:17:11;27.17;;;11.65;;
76850;SDS011;65824;43.726;20.692;2023-05-07T00:19:37;35.85;;;16.67;;
76850;SDS011;65824;43.726;20.692;2023-05-07T00:22:03;19.45;;;11.23;;
76850;SDS011;65824;43.726;20.692;2023-05-07T00:24:28;12.23;;;7.45;;
76850;SDS011;65824;43.726;20.692;2023-05-07T00:26:54;13.15;;;6.80;;
76850;SDS011;65824;43.726;20.692;2023-05-07T00:29:19;11.48;;;6.28;;
76850;SDS011;65824;43.726;20.692;2023-05-07T00:31:45;9.90;;;6.32;;
76850;SDS011;65824;43.726;20.692;2023-05-07T00:34:10;11.82;;;5.50;;
76850;SDS011;65824;43.726;20.692;2023-05-07T00:36:36;11.85;;;5.78;;
76850;SDS011;65824;43.726;20.692;2023-05-07T00:39:03;15.55;;;7.00;;
76850;SDS011;65824;43.726;20.692;2023-05-07T00:41:30;12.60;;;5.70;;
76850;SDS011;65824;43.726;20.692;2023-05-07T00:43:58;16.00;;;6.20;;
76850;SDS011;65824;43.726;20.692;2023-05-07T00:46:23;14.52;;;5.75;;
76850;SDS011;65824;43.726;20.692;2023-05-07T00:48:52;12.02;;;6.88;;
76850;SDS011;65824;43.726;20.692;2023-05-07T00:51:18;13.15;;;7.07;;
76850;SDS011;65824;43.726;20.692;2023-05-07T00:53:44;31.83;;;14.60;;
76850;SDS011;65824;43.726;20.692;2023-05-07T00:56:10;18.92;;;8.65;;
76850;SDS011;65824;43.726;20.692;2023-05-07T00:58:36;19.35;;;8.48;;
76850;SDS011;65824;43.726;20.692;2023-05-07T01:01:02;13.75;;;7.50;;
76850;SDS011;65824;43.726;20.692;2023-05-07T01:03:28;14.30;;;7.72;;
76850;SDS011;65824;43.726;20.692;2023-05-07T01:05:53;12.27;;;7.10;;
76850;SDS011;65824;43.726;20.692;2023-05-07T01:08:20;13.60;;;7.43;;
76850;SDS011;65824;43.726;20.692;2023-05-07T01:10:47;12.13;;;7.10;;
76850;SDS011;65824;43.726;20.692;2023-05-07T01:13:14;14.98;;;7.93;;
76850;SDS011;65824;43.726;20.692;2023-05-07T01:15:40;15.25;;;8.05;;
76850;SDS011;65824;43.726;20.692;2023-05-07T01:18:07;8.32;;;5.68;;
76850;SDS011;65824;43.726;20.692;2023-05-07T01:20:33;9.35;;;5.53;;
76850;SDS011;65824;43.726;20.692;2023-05-07T01:23:00;7.82;;;5.10;;
76850;SDS011;65824;43.726;20.692;2023-05-07T01:25:26;8.88;;;5.30;;
76850;SDS011;65824;43.726;20.692;2023-05-07T01:27:52;8.13;;;5.72;;
76850;SDS011;65824;43.726;20.692;2023-05-07T01:30:17;11.18;;;5.35;;
76850;SDS011;65824;43.726;20.692;2023-05-07T01:35:22;8.88;;;5.07;;
76850;SDS011;65824;43.726;20.692;2023-05-07T01:37:51;7.90;;;4.57;;
76850;SDS011;65824;43.726;20.692;2023-05-07T01:40:18;6.60;;;4.13;;
76850;SDS011;65824;43.726;20.692;2023-05-07T01:42:43;6.53;;;4.22;;
76850;SDS011;65824;43.726;20.692;2023-05-07T01:45:10;6.78;;;4.57;;
76850;SDS011;65824;43.726;20.692;2023-05-07T01:47:37;8.23;;;5.05;;
76850;SDS011;65824;43.726;20.692;2023-05-07T01:50:05;11.48;;;5.72;;
76850;SDS011;65824;43.726;20.692;2023-05-07T01:52:33;12.23;;;7.18;;
76850;SDS011;65824;43.726;20.692;2023-05-07T01:54:59;18.70;;;10.35;;
76850;SDS011;65824;43.726;20.692;2023-05-07T01:57:26;21.70;;;11.52;;
76850;SDS011;65824;43.726;20.692;2023-05-07T01:59:51;21.35;;;10.82;;
76850;SDS011;65824;43.726;20.692;2023-05-07T02:02:18;23.83;;;13.15;;
76850;SDS011;65824;43.726;20.692;2023-05-07T02:04:44;22.13;;;12.07;;
76850;SDS011;65824;43.726;20.692;2023-05-07T02:07:10;17.58;;;11.32;;
76850;SDS011;65824;43.726;20.692;2023-05-07T02:09:35;18.42;;;12.30;;
76850;SDS011;65824;43.726;20.692;2023-05-07T02:12:01;17.92;;;11.45;;
76850;SDS011;65824;43.726;20.692;2023-05-07T02:14:26;14.18;;;9.32;;
76850;SDS011;65824;43.726;20.692;2023-05-07T02:16:51;15.63;;;8.80;;
76850;SDS011;65824;43.726;20.692;2023-05-07T02:19:17;13.23;;;7.05;;
76850;SDS011;65824;43.726;20.692;2023-05-07T02:21:43;11.48;;;6.93;;
76850;SDS011;65824;43.726;20.692;2023-05-07T02:24:08;11.38;;;6.85;;
76850;SDS011;65824;43.726;20.692;2023-05-07T02:26:34;12.85;;;7.22;;
76850;SDS011;65824;43.726;20.692;2023-05-07T02:28:59;10.13;;;6.55;;
76850;SDS011;65824;43.726;20.692;2023-05-07T02:31:25;9.43;;;5.80;;
76850;SDS011;65824;43.726;20.692;2023-05-07T02:33:50;10.52;;;5.88;;
76850;SDS011;65824;43.726;20.692;2023-05-07T02:36:16;9.50;;;6.50;;
76850;SDS011;65824;43.726;20.692;2023-05-07T02:38:42;10.40;;;6.03;;
76850;SDS011;65824;43.726;20.692;2023-05-07T02:41:08;9.93;;;5.78;;
76850;SDS011;65824;43.726;20.692;2023-05-07T02:43:33;11.73;;;5.50;;
76850;SDS011;65824;43.726;20.692;2023-05-07T02:48:27;9.65;;;5.30;;
76850;SDS011;65824;43.726;20.692;2023-05-07T02:50:53;9.45;;;5.57;;
76850;SDS011;65824;43.726;20.692;2023-05-07T02:53:19;9.93;;;5.10;;
76850;SDS011;65824;43.726;20.692;2023-05-07T02:55:45;8.15;;;5.20;;
76850;SDS011;65824;43.726;20.692;2023-05-07T02:58:11;11.50;;;6.90;;
76850;SDS011;65824;43.726;20.692;2023-05-07T03:00:37;10.50;;;6.95;;
76850;SDS011;65824;43.726;20.692;2023-05-07T03:03:02;14.38;;;7.47;;
76850;SDS011;65824;43.726;20.692;2023-05-07T03:05:28;12.82;;;7.13;;
76850;SDS011;65824;43.726;20.692;2023-05-07T03:07:54;13.82;;;7.18;;
76850;SDS011;65824;43.726;20.692;2023-05-07T03:10:20;16.63;;;6.70;;
76850;SDS011;65824;43.726;20.692;2023-05-07T03:12:45;12.13;;;6.13;;
76850;SDS011;65824;43.726;20.692;2023-05-07T03:15:11;8.93;;;6.10;;
76850;SDS011;65824;43.726;20.692;2023-05-07T03:17:39;13.35;;;5.53;;
76850;SDS011;65824;43.726;20.692;2023-05-07T03:20:05;10.93;;;5.78;;
76850;SDS011;65824;43.726;20.692;2023-05-07T03:22:31;15.20;;;5.78;;
76850;SDS011;65824;43.726;20.692;2023-05-07T03:24:57;12.50;;;5.80;;
76850;SDS011;65824;43.726;20.692;2023-05-07T03:27:23;11.75;;;5.43;;
76850;SDS011;65824;43.726;20.692;2023-05-07T03:29:52;11.50;;;5.60;;
76850;SDS011;65824;43.726;20.692;2023-05-07T03:32:17;10.93;;;5.55;;
76850;SDS011;65824;43.726;20.692;2023-05-07T03:34:43;10.82;;;5.38;;
76850;SDS011;65824;43.726;20.692;2023-05-07T03:37:08;12.32;;;5.63;;
76850;SDS011;65824;43.726;20.692;2023-05-07T03:39:34;10.30;;;5.60;;
76850;SDS011;65824;43.726;20.692;2023-05-07T03:42:00;10.57;;;5.95;;
76850;SDS011;65824;43.726;20.692;2023-05-07T03:44:26;10.52;;;5.68;;
76850;SDS011;65824;43.726;20.692;2023-05-07T03:46:53;14.15;;;6.78;;
76850;SDS011;65824;43.726;20.692;2023-05-07T03:49:18;8.13;;;4.38;;
76850;SDS011;65824;43.726;20.692;2023-05-07T03:51:44;10.60;;;5.63;;
76850;SDS011;65824;43.726;20.692;2023-05-07T03:54:10;9.05;;;4.93;;
76850;SDS011;65824;43.726;20.692;2023-05-07T03:56:35;10.55;;;5.28;;
76850;SDS011;65824;43.726;20.692;2023-05-07T03:59:01;9.82;;;6.25;;
76850;SDS011;65824;43.726;20.692;2023-05-07T04:01:27;12.35;;;7.05;;
76850;SDS011;65824;43.726;20.692;2023-05-07T04:03:52;15.48;;;7.45;;
76850;SDS011;65824;43.726;20.692;2023-05-07T04:06:18;10.43;;;7.05;;
76850;SDS011;65824;43.726;20.692;2023-05-07T04:08:43;11.43;;;6.13;;
76850;SDS011;65824;43.726;20.692;2023-05-07T04:11:09;11.35;;;5.88;;
76850;SDS011;65824;43.726;20.692;2023-05-07T04:13:34;10.82;;;5.10;;
76850;SDS011;65824;43.726;20.692;2023-05-07T04:16:01;9.05;;;5.00;;
76850;SDS011;65824;43.726;20.692;2023-05-07T04:18:27;8.90;;;4.53;;
76850;SDS011;65824;43.726;20.692;2023-05-07T04:20:53;7.25;;;4.70;;
76850;SDS011;65824;43.726;20.692;2023-05-07T04:23:19;9.27;;;5.18;;
76850;SDS011;65824;43.726;20.692;2023-05-07T04:25:44;8.75;;;4.88;;
76850;SDS011;65824;43.726;20.692;2023-05-07T04:28:10;8.85;;;4.95;;
76850;SDS011;65824;43.726;20.692;2023-05-07T04:30:36;9.55;;;5.22;;
76850;SDS011;65824;43.726;20.692;2023-05-07T04:33:02;11.02;;;5.35;;
76850;SDS011;65824;43.726;20.692;2023-05-07T04:35:27;9.77;;;5.55;;
76850;SDS011;65824;43.726;20.692;2023-05-07T04:37:53;12.95;;;6.30;;
76850;SDS011;65824;43.726;20.692;2023-05-07T04:40:18;9.65;;;5.30;;
76850;SDS011;65824;43.726;20.692;2023-05-07T04:42:44;9.43;;;5.97;;
76850;SDS011;65824;43.726;20.692;2023-05-07T04:45:10;11.38;;;5.70;;
76850;SDS011;65824;43.726;20.692;2023-05-07T04:47:37;10.35;;;6.22;;
76850;SDS011;65824;43.726;20.692;2023-05-07T04:50:03;10.55;;;6.15;;
76850;SDS011;65824;43.726;20.692;2023-05-07T04:52:28;10.07;;;6.25;;
76850;SDS011;65824;43.726;20.692;2023-05-07T04:54:54;9.73;;;6.10;;
76850;SDS011;65824;43.726;20.692;2023-05-07T04:57:19;12.38;;;6.18;;
76850;SDS011;65824;43.726;20.692;2023-05-07T04:59:45;13.07;;;5.85;;
76850;SDS011;65824;43.726;20.692;2023-05-07T05:02:10;12.00;;;6.18;;
76850;SDS011;65824;43.726;20.692;2023-05-07T05:04:36;10.52;;;5.80;;
76850;SDS011;65824;43.726;20.692;2023-05-07T05:07:02;12.45;;;7.18;;
76850;SDS011;65824;43.726;20.692;2023-05-07T05:09:30;10.13;;;6.15;;
76850;SDS011;65824;43.726;20.692;2023-05-07T05:11:56;11.20;;;6.25;;
76850;SDS011;65824;43.726;20.692;2023-05-07T05:14:21;10.20;;;6.15;;
76850;SDS011;65824;43.726;20.692;2023-05-07T05:16:47;11.65;;;6.07;;
76850;SDS011;65824;43.726;20.692;2023-05-07T05:19:13;10.30;;;5.80;;
76850;SDS011;65824;43.726;20.692;2023-05-07T05:21:39;9.80;;;5.53;;
76850;SDS011;65824;43.726;20.692;2023-05-07T05:24:05;12.77;;;6.07;;
76850;SDS011;65824;43.726;20.692;2023-05-07T05:26:30;13.23;;;5.97;;
76850;SDS011;65824;43.726;20.692;2023-05-07T05:28:56;12.25;;;7.10;;
76850;SDS011;65824;43.726;20.692;2023-05-07T05:31:21;11.43;;;6.15;;
76850;SDS011;65824;43.726;20.692;2023-05-07T05:33:47;12.57;;;6.45;;
76850;SDS011;65824;43.726;20.692;2023-05-07T05:36:12;11.43;;;6.45;;
76850;SDS011;65824;43.726;20.692;2023-05-07T05:38:38;9.70;;;6.25;;
76850;SDS011;65824;43.726;20.692;2023-05-07T05:41:04;12.25;;;6.35;;
76850;SDS011;65824;43.726;20.692;2023-05-07T05:43:30;9.93;;;6.00;;
76850;SDS011;65824;43.726;20.692;2023-05-07T05:45:56;12.13;;;5.55;;
76850;SDS011;65824;43.726;20.692;2023-05-07T05:48:22;8.38;;;5.60;;
76850;SDS011;65824;43.726;20.692;2023-05-07T05:50:48;10.30;;;6.03;;
76850;SDS011;65824;43.726;20.692;2023-05-07T05:53:13;9.38;;;6.75;;
76850;SDS011;65824;43.726;20.692;2023-05-07T05:55:39;10.75;;;6.88;;
76850;SDS011;65824;43.726;20.692;2023-05-07T05:58:05;9.90;;;6.30;;
76850;SDS011;65824;43.726;20.692;2023-05-07T06:00:30;10.35;;;6.32;;
76850;SDS011;65824;43.726;20.692;2023-05-07T06:02:57;11.10;;;6.57;;
76850;SDS011;65824;43.726;20.692;2023-05-07T06:05:27;11.07;;;6.25;;
76850;SDS011;65824;43.726;20.692;2023-05-07T06:07:52;8.40;;;5.78;;
76850;SDS011;65824;43.726;20.692;2023-05-07T06:10:22;12.70;;;7.38;;
76850;SDS011;65824;43.726;20.692;2023-05-07T06:12:49;11.40;;;6.32;;
76850;SDS011;65824;43.726;20.692;2023-05-07T06:15:14;9.35;;;5.68;;
76850;SDS011;65824;43.726;20.692;2023-05-07T06:17:40;8.73;;;5.82;;
76850;SDS011;65824;43.726;20.692;2023-05-07T06:20:06;8.80;;;6.00;;
76850;SDS011;65824;43.726;20.692;2023-05-07T06:22:34;10.55;;;6.93;;
76850;SDS011;65824;43.726;20.692;2023-05-07T06:24:59;10.05;;;6.15;;
76850;SDS011;65824;43.726;20.692;2023-05-07T06:27:25;7.88;;;5.03;;
76850;SDS011;65824;43.726;20.692;2023-05-07T06:29:51;6.72;;;4.80;;
76850;SDS011;65824;43.726;20.692;2023-05-07T06:32:16;7.80;;;4.95;;
76850;SDS011;65824;43.726;20.692;2023-05-07T06:34:43;7.40;;;5.15;;
76850;SDS011;65824;43.726;20.692;2023-05-07T06:37:08;8.05;;;5.70;;
76850;SDS011;65824;43.726;20.692;2023-05-07T06:39:34;7.97;;;4.80;;
76850;SDS011;65824;43.726;20.692;2023-05-07T06:42:00;9.50;;;5.25;;
76850;SDS011;65824;43.726;20.692;2023-05-07T06:44:26;7.45;;;4.72;;
76850;SDS011;65824;43.726;20.692;2023-05-07T06:46:52;8.90;;;5.80;;
76850;SDS011;65824;43.726;20.692;2023-05-07T06:49:20;9.18;;;5.35;;
76850;SDS011;65824;43.726;20.692;2023-05-07T06:51:47;7.20;;;5.00;;
76850;SDS011;65824;43.726;20.692;2023-05-07T06:54:14;9.05;;;4.97;;
76850;SDS011;65824;43.726;20.692;2023-05-07T06:56:40;6.88;;;4.80;;
76850;SDS011;65824;43.726;20.692;2023-05-07T06:59:06;6.75;;;4.60;;
76850;SDS011;65824;43.726;20.692;2023-05-07T07:01:32;8.43;;;4.95;;
76850;SDS011;65824;43.726;20.692;2023-05-07T07:03:59;8.43;;;4.82;;
76850;SDS011;65824;43.726;20.692;2023-05-07T07:06:25;8.10;;;4.78;;
76850;SDS011;65824;43.726;20.692;2023-05-07T07:08:52;6.18;;;4.13;;
76850;SDS011;65824;43.726;20.692;2023-05-07T07:11:21;7.95;;;5.18;;
76850;SDS011;65824;43.726;20.692;2023-05-07T07:13:46;7.18;;;4.53;;
76850;SDS011;65824;43.726;20.692;2023-05-07T07:16:12;9.38;;;4.57;;
76850;SDS011;65824;43.726;20.692;2023-05-07T07:18:37;7.35;;;4.30;;
76850;SDS011;65824;43.726;20.692;2023-05-07T07:21:03;5.97;;;4.05;;
76850;SDS011;65824;43.726;20.692;2023-05-07T07:23:29;7.22;;;4.60;;
76850;SDS011;65824;43.726;20.692;2023-05-07T07:25:55;8.13;;;4.53;;
76850;SDS011;65824;43.726;20.692;2023-05-07T07:28:21;8.38;;;4.43;;
76850;SDS011;65824;43.726;20.692;2023-05-07T07:30:47;8.43;;;4.78;;
76850;SDS011;65824;43.726;20.692;2023-05-07T07:33:12;6.25;;;4.57;;
76850;SDS011;65824;43.726;20.692;2023-05-07T07:35:37;8.02;;;4.95;;
76850;SDS011;65824;43.726;20.692;2023-05-07T07:38:04;7.97;;;5.07;;
76850;SDS011;65824;43.726;20.692;2023-05-07T07:40:30;6.85;;;4.68;;
76850;SDS011;65824;43.726;20.692;2023-05-07T07:42:56;7.40;;;4.38;;
76850;SDS011;65824;43.726;20.692;2023-05-07T07:45:21;19.90;;;11.90;;
76850;SDS011;65824;43.726;20.692;2023-05-07T07:47:47;9.50;;;5.13;;
76850;SDS011;65824;43.726;20.692;2023-05-07T07:50:12;6.13;;;4.18;;
76850;SDS011;65824;43.726;20.692;2023-05-07T07:52:38;7.07;;;4.35;;
76850;SDS011;65824;43.726;20.692;2023-05-07T07:55:04;6.75;;;4.32;;
76850;SDS011;65824;43.726;20.692;2023-05-07T07:57:32;9.52;;;4.93;;
76850;SDS011;65824;43.726;20.692;2023-05-07T07:59:58;7.28;;;4.53;;
76850;SDS011;65824;43.726;20.692;2023-05-07T08:02:23;6.43;;;4.43;;
76850;SDS011;65824;43.726;20.692;2023-05-07T08:04:49;5.70;;;4.07;;
76850;SDS011;65824;43.726;20.692;2023-05-07T08:07:14;4.95;;;3.65;;
76850;SDS011;65824;43.726;20.692;2023-05-07T08:09:43;5.43;;;3.72;;
76850;SDS011;65824;43.726;20.692;2023-05-07T08:12:09;7.18;;;4.43;;
76850;SDS011;65824;43.726;20.692;2023-05-07T08:14:35;6.95;;;3.95;;
76850;SDS011;65824;43.726;20.692;2023-05-07T08:17:02;6.00;;;3.88;;
76850;SDS011;65824;43.726;20.692;2023-05-07T08:19:28;5.82;;;3.95;;
76850;SDS011;65824;43.726;20.692;2023-05-07T08:21:54;5.75;;;3.70;;
76850;SDS011;65824;43.726;20.692;2023-05-07T08:24:20;5.10;;;3.60;;
76850;SDS011;65824;43.726;20.692;2023-05-07T08:26:46;4.93;;;3.38;;
76850;SDS011;65824;43.726;20.692;2023-05-07T08:29:11;5.47;;;3.50;;
76850;SDS011;65824;43.726;20.692;2023-05-07T08:31:37;5.43;;;3.60;;
76850;SDS011;65824;43.726;20.692;2023-05-07T08:34:04;5.45;;;3.10;;
76850;SDS011;65824;43.726;20.692;2023-05-07T08:36:31;5.78;;;3.75;;
76850;SDS011;65824;43.726;20.692;2023-05-07T08:38:57;6.40;;;3.65;;
76850;SDS011;65824;43.726;20.692;2023-05-07T08:41:22;6.63;;;3.83;;
76850;SDS011;65824;43.726;20.692;2023-05-07T08:43:48;6.43;;;4.13;;
76850;SDS011;65824;43.726;20.692;2023-05-07T08:46:21;5.45;;;3.70;;
76850;SDS011;65824;43.726;20.692;2023-05-07T08:48:48;6.38;;;3.90;;
76850;SDS011;65824;43.726;20.692;2023-05-07T08:51:15;5.22;;;3.60;;
76850;SDS011;65824;43.726;20.692;2023-05-07T08:53:42;5.15;;;3.05;;
76850;SDS011;65824;43.726;20.692;2023-05-07T08:56:08;6.30;;;3.55;;
76850;SDS011;65824;43.726;20.692;2023-05-07T08:58:35;6.10;;;3.65;;
76850;SDS011;65824;43.726;20.692;2023-05-07T09:01:05;4.85;;;3.60;;
76850;SDS011;65824;43.726;20.692;2023-05-07T09:03:51;5.82;;;3.72;;
76850;SDS011;65824;43.726;20.692;2023-05-07T09:06:17;6.75;;;3.60;;
76850;SDS011;65824;43.726;20.692;2023-05-07T09:08:48;6.13;;;3.67;;
76850;SDS011;65824;43.726;20.692;2023-05-07T09:11:16;5.00;;;3.33;;
76850;SDS011;65824;43.726;20.692;2023-05-07T09:13:42;5.43;;;3.70;;
76850;SDS011;65824;43.726;20.692;2023-05-07T09:16:11;6.78;;;4.10;;
76850;SDS011;65824;43.726;20.692;2023-05-07T09:18:43;5.15;;;3.40;;
76850;SDS011;65824;43.726;20.692;2023-05-07T09:21:10;6.07;;;3.25;;
76850;SDS011;65824;43.726;20.692;2023-05-07T09:23:36;6.13;;;3.33;;
76850;SDS011;65824;43.726;20.692;2023-05-07T09:26:01;6.68;;;3.47;;
76850;SDS011;65824;43.726;20.692;2023-05-07T09:28:27;5.57;;;3.47;;
76850;SDS011;65824;43.726;20.692;2023-05-07T09:30:52;7.80;;;3.78;;
76850;SDS011;65824;43.726;20.692;2023-05-07T09:33:18;6.45;;;4.18;;
76850;SDS011;65824;43.726;20.692;2023-05-07T09:35:44;8.95;;;3.83;;
76850;SDS011;65824;43.726;20.692;2023-05-07T09:38:11;7.68;;;4.15;;
76850;SDS011;65824;43.726;20.692;2023-05-07T09:40:38;10.45;;;5.47;;
76850;SDS011;65824;43.726;20.692;2023-05-07T09:43:13;9.25;;;6.55;;
76850;SDS011;65824;43.726;20.692;2023-05-07T09:45:38;19.08;;;12.32;;
76850;SDS011;65824;43.726;20.692;2023-05-07T09:48:05;14.32;;;9.70;;
76850;SDS011;65824;43.726;20.692;2023-05-07T09:50:32;19.92;;;13.93;;
76850;SDS011;65824;43.726;20.692;2023-05-07T09:53:01;11.10;;;5.00;;
76850;SDS011;65824;43.726;20.692;2023-05-07T09:55:28;27.88;;;18.98;;
76850;SDS011;65824;43.726;20.692;2023-05-07T09:57:54;18.08;;;11.73;;
76850;SDS011;65824;43.726;20.692;2023-05-07T10:00:21;14.45;;;8.95;;
76850;SDS011;65824;43.726;20.692;2023-05-07T10:02:52;23.92;;;15.65;;
76850;SDS011;65824;43.726;20.692;2023-05-07T10:05:18;39.50;;;27.40;;
76850;SDS011;65824;43.726;20.692;2023-05-07T10:07:45;46.97;;;31.02;;
76850;SDS011;65824;43.726;20.692;2023-05-07T10:10:12;18.42;;;11.60;;
76850;SDS011;65824;43.726;20.692;2023-05-07T10:12:38;18.48;;;11.73;;
76850;SDS011;65824;43.726;20.692;2023-05-07T10:15:08;8.80;;;6.28;;
76850;SDS011;65824;43.726;20.692;2023-05-07T10:17:35;16.60;;;10.80;;
76850;SDS011;65824;43.726;20.692;2023-05-07T10:20:06;16.35;;;10.02;;
76850;SDS011;65824;43.726;20.692;2023-05-07T10:22:33;20.20;;;9.13;;
76850;SDS011;65824;43.726;20.692;2023-05-07T10:25:04;16.67;;;8.00;;
76850;SDS011;65824;43.726;20.692;2023-05-07T10:27:37;13.32;;;8.70;;
76850;SDS011;65824;43.726;20.692;2023-05-07T10:30:20;19.02;;;10.27;;
76850;SDS011;65824;43.726;20.692;2023-05-07T10:33:13;11.30;;;6.63;;
76850;SDS011;65824;43.726;20.692;2023-05-07T10:35:41;9.15;;;5.93;;
76850;SDS011;65824;43.726;20.692;2023-05-07T10:38:08;8.98;;;5.20;;
76850;SDS011;65824;43.726;20.692;2023-05-07T10:40:34;11.95;;;6.28;;
76850;SDS011;65824;43.726;20.692;2023-05-07T10:43:01;9.57;;;5.85;;
76850;SDS011;65824;43.726;20.692;2023-05-07T10:45:30;10.88;;;4.85;;
76850;SDS011;65824;43.726;20.692;2023-05-07T10:48:10;7.22;;;5.10;;
76850;SDS011;65824;43.726;20.692;2023-05-07T10:50:43;7.55;;;4.13;;
76850;SDS011;65824;43.726;20.692;2023-05-07T10:53:22;6.40;;;4.13;;
76850;SDS011;65824;43.726;20.692;2023-05-07T10:55:51;12.95;;;6.32;;
76850;SDS011;65824;43.726;20.692;2023-05-07T11:00:46;5.40;;;3.80;;
76850;SDS011;65824;43.726;20.692;2023-05-07T11:03:11;8.57;;;5.40;;
76850;SDS011;65824;43.726;20.692;2023-05-07T11:05:41;8.75;;;5.78;;
76850;SDS011;65824;43.726;20.692;2023-05-07T11:08:06;5.95;;;3.83;;
76850;SDS011;65824;43.726;20.692;2023-05-07T11:10:50;7.18;;;4.22;;
76850;SDS011;65824;43.726;20.692;2023-05-07T11:13:17;6.43;;;4.35;;
76850;SDS011;65824;43.726;20.692;2023-05-07T11:15:47;6.30;;;3.67;;
76850;SDS011;65824;43.726;20.692;2023-05-07T11:18:16;4.82;;;3.25;;
76850;SDS011;65824;43.726;20.692;2023-05-07T11:20:55;6.82;;;4.55;;
76850;SDS011;65824;43.726;20.692;2023-05-07T11:26:00;5.25;;;3.42;;
76850;SDS011;65824;43.726;20.692;2023-05-07T11:28:27;5.20;;;4.00;;
76850;SDS011;65824;43.726;20.692;2023-05-07T11:30:53;7.20;;;4.25;;
76850;SDS011;65824;43.726;20.692;2023-05-07T11:33:21;6.40;;;4.28;;
76850;SDS011;65824;43.726;20.692;2023-05-07T11:35:47;6.00;;;4.00;;
76850;SDS011;65824;43.726;20.692;2023-05-07T11:38:13;5.00;;;3.20;;
76850;SDS011;65824;43.726;20.692;2023-05-07T11:40:59;5.97;;;3.65;;
76850;SDS011;65824;43.726;20.692;2023-05-07T11:43:25;5.90;;;3.50;;
76850;SDS011;65824;43.726;20.692;2023-05-07T11:45:51;6.53;;;4.20;;
76850;SDS011;65824;43.726;20.692;2023-05-07T11:48:17;8.35;;;3.95;;
76850;SDS011;65824;43.726;20.692;2023-05-07T11:50:53;7.13;;;3.67;;
76850;SDS011;65824;43.726;20.692;2023-05-07T11:53:25;5.25;;;3.28;;
76850;SDS011;65824;43.726;20.692;2023-05-07T11:55:52;5.90;;;3.03;;
76850;SDS011;65824;43.726;20.692;2023-05-07T11:58:21;5.22;;;3.05;;
76850;SDS011;65824;43.726;20.692;2023-05-07T12:00:51;5.00;;;3.28;;
76850;SDS011;65824;43.726;20.692;2023-05-07T12:03:24;5.68;;;2.80;;
76850;SDS011;65824;43.726;20.692;2023-05-07T12:05:50;4.53;;;2.65;;
76850;SDS011;65824;43.726;20.692;2023-05-07T12:08:17;4.45;;;3.03;;
76850;SDS011;65824;43.726;20.692;2023-05-07T12:10:43;4.10;;;2.60;;
76850;SDS011;65824;43.726;20.692;2023-05-07T12:13:16;3.72;;;2.53;;
76850;SDS011;65824;43.726;20.692;2023-05-07T12:15:46;5.32;;;2.85;;
76850;SDS011;65824;43.726;20.692;2023-05-07T12:18:15;4.03;;;2.40;;
76850;SDS011;65824;43.726;20.692;2023-05-07T12:20:45;5.53;;;3.10;;
76850;SDS011;65824;43.726;20.692;2023-05-07T12:23:11;5.25;;;3.33;;
76850;SDS011;65824;43.726;20.692;2023-05-07T12:25:39;4.53;;;2.90;;
76850;SDS011;65824;43.726;20.692;2023-05-07T12:28:15;4.53;;;2.75;;
76850;SDS011;65824;43.726;20.692;2023-05-07T12:30:45;4.80;;;2.90;;
76850;SDS011;65824;43.726;20.692;2023-05-07T12:35:41;5.38;;;3.00;;
76850;SDS011;65824;43.726;20.692;2023-05-07T12:38:08;5.07;;;3.00;;
76850;SDS011;65824;43.726;20.692;2023-05-07T12:40:45;4.30;;;2.92;;
76850;SDS011;65824;43.726;20.692;2023-05-07T12:43:19;4.97;;;2.75;;
76850;SDS011;65824;43.726;20.692;2023-05-07T12:45:53;5.07;;;3.03;;
76850;SDS011;65824;43.726;20.692;2023-05-07T12:48:21;4.53;;;2.72;;
76850;SDS011;65824;43.726;20.692;2023-05-07T12:50:50;5.38;;;2.80;;
76850;SDS011;65824;43.726;20.692;2023-05-07T12:53:19;5.95;;;2.90;;
76850;SDS011;65824;43.726;20.692;2023-05-07T12:55:47;5.05;;;2.88;;
76850;SDS011;65824;43.726;20.692;2023-05-07T12:58:30;4.32;;;2.63;;
76850;SDS011;65824;43.726;20.692;2023-05-07T13:01:00;4.53;;;2.90;;
76850;SDS011;65824;43.726;20.692;2023-05-07T13:03:32;5.00;;;3.08;;
76850;SDS011;65824;43.726;20.692;2023-05-07T13:05:59;5.07;;;3.10;;
76850;SDS011;65824;43.726;20.692;2023-05-07T13:10:57;4.47;;;2.80;;
76850;SDS011;65824;43.726;20.692;2023-05-07T13:13:46;4.85;;;3.13;;
76850;SDS011;65824;43.726;20.692;2023-05-07T13:16:12;5.35;;;3.33;;
76850;SDS011;65824;43.726;20.692;2023-05-07T13:18:38;5.90;;;3.20;;
76850;SDS011;65824;43.726;20.692;2023-05-07T13:21:05;6.47;;;3.10;;
76850;SDS011;65824;43.726;20.692;2023-05-07T13:23:31;4.03;;;2.80;;
76850;SDS011;65824;43.726;20.692;2023-05-07T13:25:56;5.53;;;2.90;;
76850;SDS011;65824;43.726;20.692;2023-05-07T13:28:22;4.07;;;2.80;;
76850;SDS011;65824;43.726;20.692;2023-05-07T13:30:48;4.78;;;3.03;;
76850;SDS011;65824;43.726;20.692;2023-05-07T13:33:14;4.20;;;2.92;;
76850;SDS011;65824;43.726;20.692;2023-05-07T13:35:41;4.20;;;2.83;;
76850;SDS011;65824;43.726;20.692;2023-05-07T13:38:06;5.10;;;2.92;;
76850;SDS011;65824;43.726;20.692;2023-05-07T13:40:32;4.43;;;2.97;;
76850;SDS011;65824;43.726;20.692;2023-05-07T13:42:59;6.05;;;3.25;;
76850;SDS011;65824;43.726;20.692;2023-05-07T13:45:28;4.18;;;2.97;;
76850;SDS011;65824;43.726;20.692;2023-05-07T13:47:56;4.90;;;3.22;;
76850;SDS011;65824;43.726;20.692;2023-05-07T13:50:23;5.50;;;3.22;;
76850;SDS011;65824;43.726;20.692;2023-05-07T13:52:54;7.55;;;4.00;;
76850;SDS011;65824;43.726;20.692;2023-05-07T13:55:25;4.55;;;3.30;;
76850;SDS011;65824;43.726;20.692;2023-05-07T13:57:56;5.90;;;3.53;;
76850;SDS011;65824;43.726;20.692;2023-05-07T14:00:22;4.45;;;3.00;;
76850;SDS011;65824;43.726;20.692;2023-05-07T14:02:48;8.07;;;3.35;;
76850;SDS011;65824;43.726;20.692;2023-05-07T14:05:15;7.45;;;3.22;;
76850;SDS011;65824;43.726;20.692;2023-05-07T14:07:41;4.65;;;2.60;;
76850;SDS011;65824;43.726;20.692;2023-05-07T14:10:07;5.55;;;3.05;;
76850;SDS011;65824;43.726;20.692;2023-05-07T14:12:33;4.97;;;3.05;;
76850;SDS011;65824;43.726;20.692;2023-05-07T14:14:59;5.95;;;2.78;;
76850;SDS011;65824;43.726;20.692;2023-05-07T14:17:25;6.45;;;3.00;;
76850;SDS011;65824;43.726;20.692;2023-05-07T14:19:52;4.93;;;2.85;;
76850;SDS011;65824;43.726;20.692;2023-05-07T14:22:19;4.95;;;3.10;;
76850;SDS011;65824;43.726;20.692;2023-05-07T14:24:46;7.80;;;3.00;;
76850;SDS011;65824;43.726;20.692;2023-05-07T14:27:15;5.13;;;2.95;;
76850;SDS011;65824;43.726;20.692;2023-05-07T14:29:41;5.75;;;3.20;;
76850;SDS011;65824;43.726;20.692;2023-05-07T14:32:07;5.65;;;3.03;;
76850;SDS011;65824;43.726;20.692;2023-05-07T14:34:33;4.50;;;3.05;;
76850;SDS011;65824;43.726;20.692;2023-05-07T14:36:59;5.15;;;3.22;;
76850;SDS011;65824;43.726;20.692;2023-05-07T14:39:25;5.55;;;3.03;;
76850;SDS011;65824;43.726;20.692;2023-05-07T14:41:51;4.50;;;2.53;;